createdAt,value
2023-02-19T00:02:13.716Z,98027.00
2023-02-19T00:04:40.967Z,98026.00
2023-02-19T00:07:08.746Z,98026.00
2023-02-19T00:09:35.884Z,98021.00
2023-02-19T00:12:03.104Z,98018.00
2023-02-19T00:14:30.150Z,98009.00
2023-02-19T00:16:57.245Z,98011.00
2023-02-19T00:19:24.826Z,98005.00
2023-02-19T00:21:53.296Z,98022.00
2023-02-19T00:24:21.641Z,98005.00
2023-02-19T00:26:49.280Z,97999.00
2023-02-19T00:29:21.496Z,98001.00
2023-02-19T00:31:49.193Z,97997.00
2023-02-19T00:34:16.669Z,97996.00
2023-02-19T00:36:44.371Z,97991.00
2023-02-19T00:39:15.854Z,97997.00
2023-02-19T00:41:43.856Z,97991.00
2023-02-19T00:44:12.088Z,97989.00
2023-02-19T00:46:43.297Z,97990.00
2023-02-19T00:49:20.825Z,97998.00
2023-02-19T00:51:49.893Z,97984.00
2023-02-19T00:54:17.808Z,97984.00
2023-02-19T00:56:45.576Z,97977.00
2023-02-19T00:59:14.062Z,97978.00
2023-02-19T01:01:41.947Z,97979.00
2023-02-19T01:04:09.150Z,97977.00
2023-02-19T01:06:37.165Z,97967.00
2023-02-19T01:09:07.281Z,97962.00
2023-02-19T01:11:35.006Z,97961.00
2023-02-19T01:14:03.648Z,97970.00
2023-02-19T01:16:33.611Z,97957.00
2023-02-19T01:19:01.105Z,97962.00
2023-02-19T01:21:32.483Z,97946.00
2023-02-19T01:23:59.700Z,97950.00
2023-02-19T01:26:32.682Z,97952.00
2023-02-19T01:29:01.382Z,97952.00
2023-02-19T01:31:30.160Z,97945.00
2023-02-19T01:34:01.347Z,97944.00
2023-02-19T01:36:29.771Z,97943.00
2023-02-19T01:38:57.128Z,97934.00
2023-02-19T01:41:26.034Z,97935.00
2023-02-19T01:44:12.286Z,97928.00
2023-02-19T01:46:42.675Z,97932.00
2023-02-19T01:49:16.920Z,97934.00
2023-02-19T01:51:58.095Z,97933.00
2023-02-19T01:54:29.916Z,97926.00
2023-02-19T01:57:00.515Z,97922.00
2023-02-19T01:59:27.848Z,97916.00
2023-02-19T02:01:55.455Z,97918.00
2023-02-19T02:04:22.952Z,97919.00
2023-02-19T02:06:54.472Z,97916.00
2023-02-19T02:09:45.249Z,97917.00
2023-02-19T02:12:12.985Z,97912.00
2023-02-19T02:14:45.138Z,97908.00
2023-02-19T02:17:38.985Z,97898.00
2023-02-19T02:20:21.552Z,97899.00
2023-02-19T02:26:10.727Z,97900.00
2023-02-19T02:29:25.699Z,97890.00
2023-02-19T02:32:11.794Z,97890.00
2023-02-19T02:34:51.499Z,97885.00
2023-02-19T02:37:19.019Z,97893.00
2023-02-19T02:39:47.383Z,97894.00
2023-02-19T02:42:29.992Z,97885.00
2023-02-19T02:45:37.895Z,97889.00
2023-02-19T02:48:14.999Z,97880.00
2023-02-19T02:51:10.667Z,97892.00
2023-02-19T02:54:05.180Z,97902.00
2023-02-19T02:56:33.142Z,97894.00
2023-02-19T02:59:04.786Z,97894.00
2023-02-19T03:02:14.377Z,97882.00
2023-02-19T03:05:27.126Z,97883.00
2023-02-19T03:08:06.477Z,97875.00
2023-02-19T03:10:41.504Z,97856.00
2023-02-19T03:13:34.589Z,97859.00
2023-02-19T03:16:36.884Z,97849.00
2023-02-19T03:19:21.182Z,97853.00
2023-02-19T03:22:16.094Z,97847.00
2023-02-19T03:25:11.094Z,97848.00
2023-02-19T03:27:41.430Z,97844.00
2023-02-19T03:30:21.200Z,97841.00
2023-02-19T03:33:17.481Z,97846.00
2023-02-19T03:35:56.726Z,97853.00
2023-02-19T03:38:30.578Z,97851.00
2023-02-19T03:41:21.062Z,97845.00
2023-02-19T03:44:02.378Z,97848.00
2023-02-19T03:47:05.555Z,97852.00
2023-02-19T03:49:51.363Z,97833.00
2023-02-19T03:52:29.371Z,97826.00
2023-02-19T03:55:26.787Z,97807.00
2023-02-19T03:57:56.874Z,97815.00
2023-02-19T04:00:48.790Z,97823.00
2023-02-19T04:03:57.415Z,97834.00
2023-02-19T04:06:29.544Z,97835.00
2023-02-19T04:09:02.552Z,97834.00
2023-02-19T04:11:32.449Z,97812.00
2023-02-19T04:14:09.452Z,97822.00
2023-02-19T04:16:39.841Z,97827.00
2023-02-19T04:19:12.766Z,97817.00
2023-02-19T04:21:42.080Z,97820.00
2023-02-19T04:24:23.147Z,97827.00
2023-02-19T04:26:50.226Z,97824.00
2023-02-19T04:29:17.444Z,97828.00
2023-02-19T04:31:44.693Z,97832.00
2023-02-19T04:34:11.909Z,97835.00
2023-02-19T04:36:39.130Z,97833.00
2023-02-19T04:39:08.286Z,97834.00
2023-02-19T04:41:35.364Z,97831.00
2023-02-19T04:44:04.190Z,97823.00
2023-02-19T04:46:31.481Z,97830.00
2023-02-19T04:48:58.640Z,97830.00
2023-02-19T04:51:25.749Z,97834.00
2023-02-19T04:53:53.034Z,97833.00
2023-02-19T04:56:20.424Z,97848.00
2023-02-19T04:58:47.469Z,97844.00
2023-02-19T05:01:15.159Z,97842.00
2023-02-19T05:03:42.672Z,97830.00
2023-02-19T05:06:13.234Z,97829.00
2023-02-19T05:08:41.396Z,97830.00
2023-02-19T05:11:11.794Z,97834.00
2023-02-19T05:13:40.452Z,97837.00
2023-02-19T05:16:14.036Z,97840.00
2023-02-19T05:18:43.142Z,97834.00
2023-02-19T05:21:11.465Z,97834.00
2023-02-19T05:23:39.300Z,97834.00
2023-02-19T05:26:18.217Z,97838.00
2023-02-19T05:28:53.361Z,97830.00
2023-02-19T05:31:21.601Z,97842.00
2023-02-19T05:33:51.360Z,97838.00
2023-02-19T05:36:21.413Z,97845.00
2023-02-19T05:38:52.882Z,97844.00
2023-02-19T05:41:24.931Z,97834.00
2023-02-19T05:43:52.519Z,97831.00
2023-02-19T05:46:23.092Z,97849.00
2023-02-19T05:48:52.393Z,97848.00
2023-02-19T05:51:22.427Z,97857.00
2023-02-19T05:53:50.692Z,97852.00
2023-02-19T05:56:36.638Z,97865.00
2023-02-19T05:59:18.813Z,97872.00
2023-02-19T06:01:47.444Z,97867.00
2023-02-19T06:04:15.814Z,97862.00
2023-02-19T06:06:43.732Z,97873.00
2023-02-19T06:09:11.568Z,97870.00
2023-02-19T06:11:39.560Z,97890.00
2023-02-19T06:14:07.223Z,97896.00
2023-02-19T06:16:34.516Z,97898.00
2023-02-19T06:19:05.292Z,97892.00
2023-02-19T06:21:32.360Z,97896.00
2023-02-19T06:23:59.768Z,97892.00
2023-02-19T06:26:26.837Z,97886.00
2023-02-19T06:28:54.755Z,97888.00
2023-02-19T06:31:24.033Z,97900.00
2023-02-19T06:33:51.284Z,97908.00
2023-02-19T06:36:20.377Z,97913.00
2023-02-19T06:38:47.768Z,97902.00
2023-02-19T06:41:14.985Z,97900.00
2023-02-19T06:43:42.953Z,97916.00
2023-02-19T06:46:13.050Z,97909.00
2023-02-19T06:48:42.633Z,97933.00
2023-02-19T06:51:15.384Z,97921.00
2023-02-19T06:53:42.528Z,97922.00
2023-02-19T06:56:38.524Z,97926.00
2023-02-19T06:59:10.381Z,97925.00
2023-02-19T07:01:38.213Z,97933.00
2023-02-19T07:04:07.587Z,97931.00
2023-02-19T07:06:36.006Z,97938.00
2023-02-19T07:09:06.632Z,97942.00
2023-02-19T07:11:36.091Z,97942.00
2023-02-19T07:14:10.085Z,97946.00
2023-02-19T07:16:37.486Z,97949.00
2023-02-19T07:19:04.617Z,97953.00
2023-02-19T07:21:31.967Z,97962.00
2023-02-19T07:23:59.319Z,97948.00
2023-02-19T07:26:26.482Z,97944.00
2023-02-19T07:28:53.682Z,97960.00
2023-02-19T07:31:24.044Z,97949.00
2023-02-19T07:33:52.321Z,97958.00
2023-02-19T07:36:21.725Z,97965.00
2023-02-19T07:38:56.752Z,97972.00
2023-02-19T07:41:25.719Z,97986.00
2023-02-19T07:43:54.270Z,97962.00
2023-02-19T07:46:23.045Z,97971.00
2023-02-19T07:48:50.162Z,97962.00
2023-02-19T07:51:20.204Z,97967.00
2023-02-19T07:53:50.369Z,97973.00
2023-02-19T07:56:19.370Z,97984.00
2023-02-19T07:58:46.777Z,97978.00
2023-02-19T08:01:45.459Z,97976.00
2023-02-19T08:04:14.726Z,97990.00
2023-02-19T08:06:42.387Z,97985.00
2023-02-19T08:09:10.442Z,97987.00
2023-02-19T08:11:56.466Z,97989.00
2023-02-19T08:14:27.864Z,98000.00
2023-02-19T08:16:55.435Z,98003.00
2023-02-19T08:19:23.159Z,98012.00
2023-02-19T08:21:50.829Z,98012.00
2023-02-19T08:24:17.879Z,98004.00
2023-02-19T08:26:45.137Z,98007.00
2023-02-19T08:29:12.386Z,98010.00
2023-02-19T08:31:39.655Z,98018.00
2023-02-19T08:34:06.782Z,98014.00
2023-02-19T08:36:33.922Z,98029.00
2023-02-19T08:39:00.989Z,98026.00
2023-02-19T08:41:28.269Z,98049.00
2023-02-19T08:43:55.488Z,98051.00
2023-02-19T08:46:22.881Z,98084.00
2023-02-19T08:48:50.009Z,98063.00
2023-02-19T08:51:17.127Z,98056.00
2023-02-19T08:53:44.189Z,98061.00
2023-02-19T08:56:15.635Z,98067.00
2023-02-19T08:58:43.458Z,98087.00
2023-02-19T09:01:14.342Z,98057.00
2023-02-19T09:03:42.247Z,98062.00
2023-02-19T09:06:16.882Z,98090.00
2023-02-19T09:08:44.227Z,98073.00
2023-02-19T09:11:11.808Z,98080.00
2023-02-19T09:13:39.012Z,98079.00
2023-02-19T09:16:06.497Z,98066.00
2023-02-19T09:18:33.915Z,98081.00
2023-02-19T09:21:04.637Z,98070.00
2023-02-19T09:23:35.241Z,98106.00
2023-02-19T09:26:08.587Z,98084.00
2023-02-19T09:28:36.295Z,98095.00
2023-02-19T09:31:10.440Z,98088.00
2023-02-19T09:33:38.048Z,98091.00
2023-02-19T09:36:05.939Z,98093.00
2023-02-19T09:38:32.928Z,98096.00
2023-02-19T09:41:06.945Z,98102.00
2023-02-19T09:43:34.330Z,98102.00
2023-02-19T09:46:33.502Z,98106.00
2023-02-19T09:49:14.765Z,98119.00
2023-02-19T09:51:49.983Z,98117.00
2023-02-19T09:54:30.945Z,98105.00
2023-02-19T09:57:02.361Z,98141.00
2023-02-19T10:00:09.070Z,98110.00
2023-02-19T10:02:37.857Z,98113.00
2023-02-19T10:05:14.892Z,98120.00
2023-02-19T10:07:48.740Z,98119.00
2023-02-19T10:10:15.776Z,98114.00
2023-02-19T10:12:54.750Z,98115.00
2023-02-19T10:15:36.914Z,98103.00
2023-02-19T10:18:05.792Z,98111.00
2023-02-19T10:20:33.484Z,98104.00
2023-02-19T10:23:11.133Z,98099.00
2023-02-19T10:26:03.986Z,98097.00
2023-02-19T10:28:35.125Z,98107.00
2023-02-19T10:31:05.935Z,98098.00
2023-02-19T10:33:32.970Z,98098.00
2023-02-19T10:36:07.308Z,98098.00
2023-02-19T10:38:38.634Z,98097.00
2023-02-19T10:41:17.768Z,98107.00
2023-02-19T10:43:53.431Z,98115.00
2023-02-19T10:46:48.691Z,98123.00
2023-02-19T10:49:58.158Z,98125.00
2023-02-19T10:52:34.157Z,98120.00
2023-02-19T10:55:19.562Z,98122.00
2023-02-19T10:57:47.015Z,98113.00
2023-02-19T11:00:17.033Z,98154.00
2023-02-19T11:02:45.210Z,98153.00
2023-02-19T11:05:16.350Z,98129.00
2023-02-19T11:07:58.194Z,98140.00
2023-02-19T11:10:40.821Z,98124.00
2023-02-19T11:13:17.651Z,98144.00
2023-02-19T11:15:52.144Z,98117.00
2023-02-19T11:18:27.330Z,98123.00
2023-02-19T11:21:04.296Z,98098.00
2023-02-19T11:23:37.330Z,98113.00
2023-02-19T11:26:17.537Z,98111.00
2023-02-19T11:28:44.963Z,98102.00
2023-02-19T11:31:33.204Z,98110.00
2023-02-19T11:34:30.156Z,98104.00
2023-02-19T11:37:18.223Z,98109.00
2023-02-19T11:39:50.210Z,98109.00
2023-02-19T11:43:20.130Z,98098.00
2023-02-19T11:46:17.131Z,98109.00
2023-02-19T11:49:15.443Z,98104.00
2023-02-19T11:52:07.661Z,98104.00
2023-02-19T11:54:48.688Z,98120.00
2023-02-19T11:57:44.813Z,98109.00
2023-02-19T12:00:27.782Z,98130.00
2023-02-19T12:03:37.615Z,98124.00
2023-02-19T12:06:37.375Z,98132.00
2023-02-19T12:09:42.114Z,98129.00
2023-02-19T12:12:37.938Z,98133.00
2023-02-19T12:15:45.197Z,98127.00
2023-02-19T12:19:01.097Z,98117.00
2023-02-19T12:21:51.647Z,98120.00
2023-02-19T12:24:52.405Z,98109.00
2023-02-19T12:27:53.652Z,98107.00
2023-02-19T12:31:04.133Z,98095.00
2023-02-19T12:34:09.216Z,98094.00
2023-02-19T12:37:27.666Z,98092.00
2023-02-19T12:40:41.534Z,98089.00
2023-02-19T12:43:19.973Z,98089.00
2023-02-19T12:46:06.882Z,98095.00
2023-02-19T12:48:40.220Z,98095.00
2023-02-19T12:51:42.094Z,98108.00
2023-02-19T12:54:30.790Z,98123.00
2023-02-19T12:57:16.187Z,98147.00
2023-02-19T13:00:07.565Z,98120.00
2023-02-19T13:02:47.363Z,98114.00
2023-02-19T13:05:45.420Z,98114.00
2023-02-19T13:09:06.307Z,98111.00
2023-02-19T13:11:38.863Z,98113.00
2023-02-19T13:14:32.890Z,98126.00
2023-02-19T13:17:32.296Z,98116.00
2023-02-19T13:20:20.565Z,98107.00
2023-02-19T13:23:28.824Z,98115.00
2023-02-19T13:26:36.658Z,98124.00
2023-02-19T13:29:31.196Z,98130.00
2023-02-19T13:32:23.049Z,98135.00
2023-02-19T13:35:26.408Z,98143.00
2023-02-19T13:37:55.919Z,98123.00
2023-02-19T13:40:43.050Z,98131.00
2023-02-19T13:43:28.184Z,98134.00
2023-02-19T13:46:11.651Z,98135.00
2023-02-19T13:48:41.638Z,98129.00
2023-02-19T13:51:23.597Z,98119.00
2023-02-19T13:54:02.236Z,98149.00
2023-02-19T13:56:34.793Z,98138.00
2023-02-19T13:59:38.364Z,98136.00
2023-02-19T14:02:14.574Z,98116.00
2023-02-19T14:04:43.444Z,98120.00
2023-02-19T14:07:10.559Z,98115.00
2023-02-19T14:09:37.766Z,98144.00
2023-02-19T14:12:20.611Z,98129.00
2023-02-19T14:14:53.107Z,98118.00
2023-02-19T14:17:46.146Z,98131.00
2023-02-19T14:20:36.371Z,98131.00
2023-02-19T14:23:24.316Z,98123.00
2023-02-19T14:25:59.829Z,98139.00
2023-02-19T14:28:38.263Z,98128.00
2023-02-19T14:31:19.023Z,98144.00
2023-02-19T14:33:53.837Z,98152.00
2023-02-19T14:36:48.747Z,98152.00
2023-02-19T14:39:18.540Z,98137.00
2023-02-19T14:41:50.642Z,98153.00
2023-02-19T14:44:26.145Z,98162.00
2023-02-19T14:47:11.791Z,98162.00
2023-02-19T14:50:01.532Z,98159.00
2023-02-19T14:52:36.665Z,98176.00
2023-02-19T14:55:15.112Z,98163.00
2023-02-19T14:57:46.568Z,98169.00
2023-02-19T15:00:29.984Z,98169.00
2023-02-19T15:02:59.816Z,98164.00
2023-02-19T15:05:31.238Z,98164.00
2023-02-19T15:08:01.540Z,98171.00
2023-02-19T15:10:31.260Z,98171.00
2023-02-19T15:13:03.830Z,98172.00
2023-02-19T15:15:35.479Z,98180.00
2023-02-19T15:18:04.602Z,98180.00
2023-02-19T15:20:36.461Z,98196.00
2023-02-19T15:23:06.191Z,98194.00
2023-02-19T15:25:39.786Z,98204.00
2023-02-19T15:28:25.195Z,98201.00
2023-02-19T15:31:16.248Z,98197.00
2023-02-19T15:33:53.722Z,98212.00
2023-02-19T15:36:35.133Z,98204.00
2023-02-19T15:39:03.163Z,98215.00
2023-02-19T15:41:34.881Z,98222.00
2023-02-19T15:44:13.940Z,98223.00
2023-02-19T15:46:43.610Z,98226.00
2023-02-19T15:49:25.279Z,98227.00
2023-02-19T15:52:03.832Z,98228.00
2023-02-19T15:54:46.395Z,98226.00
2023-02-19T15:57:21.628Z,98236.00
2023-02-19T16:00:25.912Z,98237.00
2023-02-19T16:02:53.086Z,98240.00
2023-02-19T16:05:29.080Z,98244.00
2023-02-19T16:08:07.497Z,98245.00
2023-02-19T16:10:34.700Z,98223.00
2023-02-19T16:13:04.633Z,98233.00
2023-02-19T16:15:34.310Z,98230.00
2023-02-19T16:18:01.866Z,98233.00
2023-02-19T16:20:35.054Z,98232.00
2023-02-19T16:23:17.397Z,98243.00
2023-02-19T16:25:46.074Z,98241.00
2023-02-19T16:28:24.367Z,98254.00
2023-02-19T16:30:59.162Z,98266.00
2023-02-19T16:33:49.886Z,98268.00
2023-02-19T16:36:33.522Z,98274.00
2023-02-19T16:39:09.550Z,98279.00
2023-02-19T16:41:48.580Z,98288.00
2023-02-19T16:44:35.980Z,98293.00
2023-02-19T16:47:23.732Z,98297.00
2023-02-19T16:49:50.855Z,98300.00
2023-02-19T16:52:17.974Z,98309.00
2023-02-19T16:54:45.084Z,98304.00
2023-02-19T16:57:12.108Z,98308.00
2023-02-19T16:59:39.092Z,98314.00
2023-02-19T17:02:09.208Z,98320.00
2023-02-19T17:04:36.392Z,98326.00
2023-02-19T17:07:03.691Z,98332.00
2023-02-19T17:09:30.772Z,98338.00
2023-02-19T17:11:57.816Z,98332.00
2023-02-19T17:14:24.850Z,98330.00
2023-02-19T17:16:51.903Z,98335.00
2023-02-19T17:19:20.234Z,98359.00
2023-02-19T17:21:47.754Z,98354.00
2023-02-19T17:24:15.121Z,98353.00
2023-02-19T17:26:42.296Z,98356.00
2023-02-19T17:29:14.692Z,98368.00
2023-02-19T17:31:42.011Z,98367.00
2023-02-19T17:34:09.293Z,98361.00
2023-02-19T17:36:38.070Z,98369.00
2023-02-19T17:39:12.259Z,98368.00
2023-02-19T17:41:39.338Z,98377.00
2023-02-19T17:44:06.699Z,98377.00
2023-02-19T17:46:34.729Z,98382.00
2023-02-19T17:49:01.931Z,98383.00
2023-02-19T17:51:29.076Z,98381.00
2023-02-19T17:53:57.036Z,98384.00
2023-02-19T17:56:26.673Z,98381.00
2023-02-19T17:58:55.548Z,98398.00
2023-02-19T18:01:23.232Z,98408.00
2023-02-19T18:03:50.768Z,98407.00
2023-02-19T18:06:18.169Z,98417.00
2023-02-19T18:08:51.594Z,98418.00
2023-02-19T18:11:20.335Z,98424.00
2023-02-19T18:13:48.372Z,98424.00
2023-02-19T18:16:16.313Z,98432.00
2023-02-19T18:18:44.736Z,98433.00
2023-02-19T18:21:13.704Z,98443.00
2023-02-19T18:23:41.035Z,98441.00
2023-02-19T18:26:12.005Z,98450.00
2023-02-19T18:28:39.545Z,98445.00
2023-02-19T18:31:07.181Z,98455.00
2023-02-19T18:33:35.197Z,98457.00
2023-02-19T18:36:02.917Z,98462.00
2023-02-19T18:38:30.060Z,98471.00
2023-02-19T18:40:58.782Z,98472.00
2023-02-19T18:43:26.110Z,98481.00
2023-02-19T18:45:53.441Z,98481.00
2023-02-19T18:48:20.520Z,98473.00
2023-02-19T18:50:47.679Z,98480.00
2023-02-19T18:53:14.720Z,98468.00
2023-02-19T18:55:41.930Z,98474.00
2023-02-19T18:58:08.966Z,98477.00
2023-02-19T19:00:36.390Z,98476.00
2023-02-19T19:03:03.474Z,98489.00
2023-02-19T19:05:30.656Z,98489.00
2023-02-19T19:07:59.719Z,98503.00
2023-02-19T19:10:26.996Z,98497.00
2023-02-19T19:12:54.605Z,98494.00
2023-02-19T19:15:22.034Z,98504.00
2023-02-19T19:17:49.767Z,98495.00
2023-02-19T19:20:20.056Z,98490.00
2023-02-19T19:22:51.069Z,98484.00
2023-02-19T19:25:19.316Z,98484.00
2023-02-19T19:27:46.793Z,98485.00
2023-02-19T19:30:14.453Z,98478.00
2023-02-19T19:32:42.059Z,98486.00
2023-02-19T19:35:09.903Z,98487.00
2023-02-19T19:37:36.977Z,98499.00
2023-02-19T19:40:04.536Z,98501.00
2023-02-19T19:42:31.629Z,98500.00
2023-02-19T19:44:58.771Z,98494.00
2023-02-19T19:47:25.939Z,98494.00
2023-02-19T19:49:53.139Z,98499.00
2023-02-19T19:52:20.463Z,98501.00
2023-02-19T19:54:47.540Z,98514.00
2023-02-19T19:57:16.420Z,98511.00
2023-02-19T19:59:43.657Z,98506.00
2023-02-19T20:02:11.326Z,98502.00
2023-02-19T20:04:38.318Z,98506.00
2023-02-19T20:07:05.533Z,98514.00
2023-02-19T20:09:32.601Z,98520.00
2023-02-19T20:11:59.939Z,98526.00
2023-02-19T20:14:27.266Z,98520.00
2023-02-19T20:16:55.730Z,98515.00
2023-02-19T20:19:23.922Z,98523.00
2023-02-19T20:21:54.683Z,98522.00
2023-02-19T20:24:26.136Z,98522.00
2023-02-19T20:27:02.681Z,98529.00
2023-02-19T20:29:33.634Z,98525.00
2023-02-19T20:32:03.648Z,98519.00
2023-02-19T20:34:31.608Z,98525.00
2023-02-19T20:36:59.281Z,98526.00
2023-02-19T20:39:29.325Z,98531.00
2023-02-19T20:41:58.508Z,98535.00
2023-02-19T20:44:30.020Z,98536.00
2023-02-19T20:46:59.419Z,98542.00
2023-02-19T20:49:31.765Z,98543.00
2023-02-19T20:52:02.883Z,98550.00
2023-02-19T20:54:33.432Z,98544.00
2023-02-19T20:57:03.951Z,98543.00
2023-02-19T20:59:35.472Z,98552.00
2023-02-19T21:02:27.811Z,98558.00
2023-02-19T21:04:56.748Z,98559.00
2023-02-19T21:07:25.222Z,98551.00
2023-02-19T21:09:52.690Z,98551.00
2023-02-19T21:12:22.173Z,98544.00
2023-02-19T21:14:49.743Z,98547.00
2023-02-19T21:17:16.804Z,98548.00
2023-02-19T21:19:43.887Z,98556.00
2023-02-19T21:22:10.989Z,98552.00
2023-02-19T21:24:38.103Z,98571.00
2023-02-19T21:27:05.292Z,98555.00
2023-02-19T21:29:32.537Z,98549.00
2023-02-19T21:32:00.071Z,98559.00
2023-02-19T21:34:29.622Z,98556.00
2023-02-19T21:36:57.584Z,98561.00
2023-02-19T21:39:26.238Z,98552.00
2023-02-19T21:41:54.167Z,98553.00
2023-02-19T21:44:21.762Z,98556.00
2023-02-19T21:46:48.974Z,98547.00
2023-02-19T21:49:16.140Z,98545.00
2023-02-19T21:51:45.419Z,98551.00
2023-02-19T21:54:24.758Z,98546.00
2023-02-19T21:56:53.564Z,98540.00
2023-02-19T21:59:22.123Z,98540.00
2023-02-19T22:01:50.600Z,98543.00
2023-02-19T22:04:21.255Z,98544.00
2023-02-19T22:06:48.274Z,98528.00
2023-02-19T22:09:15.839Z,98542.00
2023-02-19T22:11:43.129Z,98548.00
2023-02-19T22:14:10.309Z,98551.00
2023-02-19T22:16:37.460Z,98560.00
2023-02-19T22:19:04.977Z,98555.00
2023-02-19T22:21:33.028Z,98552.00
2023-02-19T22:24:02.430Z,98563.00
2023-02-19T22:26:35.480Z,98564.00
2023-02-19T22:29:07.125Z,98558.00
2023-02-19T22:31:34.774Z,98566.00
2023-02-19T22:34:02.819Z,98566.00
2023-02-19T22:36:33.239Z,98566.00
2023-02-19T22:39:01.186Z,98565.00
2023-02-19T22:41:29.008Z,98558.00
2023-02-19T22:43:57.996Z,98562.00
2023-02-19T22:46:28.955Z,98572.00
2023-02-19T22:48:56.324Z,98571.00
2023-02-19T22:51:24.731Z,98584.00
2023-02-19T22:53:57.795Z,98582.00
2023-02-19T22:56:27.947Z,98592.00
2023-02-19T22:58:57.549Z,98584.00
2023-02-19T23:01:25.521Z,98576.00
2023-02-19T23:03:56.104Z,98587.00
2023-02-19T23:06:30.997Z,98577.00
2023-02-19T23:09:03.463Z,98576.00
2023-02-19T23:11:39.119Z,98582.00
2023-02-19T23:14:07.707Z,98584.00
2023-02-19T23:16:38.536Z,98591.00
2023-02-19T23:19:11.501Z,98590.00
2023-02-19T23:21:44.209Z,98591.00
2023-02-19T23:24:13.619Z,98593.00
2023-02-19T23:26:50.360Z,98596.00
2023-02-19T23:29:26.708Z,98585.00
2023-02-19T23:31:55.104Z,98589.00
2023-02-19T23:34:24.353Z,98597.00
2023-02-19T23:36:52.108Z,98590.00
2023-02-19T23:39:21.864Z,98594.00
2023-02-19T23:41:55.570Z,98594.00
2023-02-19T23:44:25.060Z,98588.00
2023-02-19T23:46:52.974Z,98602.00
2023-02-19T23:49:20.231Z,98594.00
2023-02-19T23:51:47.562Z,98595.00
2023-02-19T23:54:14.709Z,98600.00
2023-02-19T23:56:41.822Z,98581.00
2023-02-19T23:59:09.250Z,98579.00
